Time;durP1;ratioP1;P1;durP2;ratioP2;P2;SDS_P1;SDS_P2;PMS_P1;PMS_P2;Temp;Humidity;BMP_temperature;BMP_pressure;BME280_temperature;BME280_humidity;BME280_pressure;Samples;Min_cycle;Max_cycle;Signal;HPM_P1;HPM_P2
2022/06/08 00:00:36;;;;;;;12.10;8.03;;;;;;;14.09;82.92;94263.20;1812187;79;21041;-56
2022/06/08 00:03:11;;;;;;;9.00;7.40;;;;;;;14.06;83.17;94263.57;1781690;79;21040;-56
2022/06/08 00:05:40;;;;;;;15.00;8.38;;;;;;;14.05;82.82;94255.13;1812059;79;21030;-56
2022/06/08 00:08:09;;;;;;;10.88;8.48;;;;;;;14.01;82.34;94250.40;1758302;79;21420;-55
2022/06/08 00:10:37;;;;;;;46.92;25.50;;;;;;;13.97;82.37;94247.71;1812072;78;21134;-55
2022/06/08 00:13:05;;;;;;;49.03;26.68;;;;;;;13.95;82.99;94244.64;1812759;78;20877;-56
2022/06/08 00:15:35;;;;;;;59.60;31.07;;;;;;;13.92;83.22;94241.45;1783008;79;20997;-54
2022/06/08 00:18:05;;;;;;;77.00;40.03;;;;;;;13.85;83.47;94241.86;1812447;79;21117;-56
2022/06/08 00:20:33;;;;;;;65.37;35.88;;;;;;;13.81;84.05;94248.22;1812321;79;21025;-55
2022/06/08 00:23:01;;;;;;;53.48;29.35;;;;;;;13.79;84.19;94239.64;1783526;79;21394;-55
2022/06/08 00:25:29;;;;;;;32.83;21.00;;;;;;;13.77;84.06;94237.95;1811946;79;21413;-55
2022/06/08 00:27:58;;;;;;;55.73;31.82;;;;;;;13.71;84.13;94239.27;1812085;79;21410;-54
2022/06/08 00:30:26;;;;;;;38.98;22.50;;;;;;;13.67;84.30;94233.79;1812548;79;20862;-56
2022/06/08 00:32:55;;;;;;;55.10;26.37;;;;;;;13.67;84.37;94232.41;1812172;79;20980;-56
2022/06/08 00:35:23;;;;;;;42.48;24.57;;;;;;;13.64;84.08;94231.98;1812070;79;21146;-56
2022/06/08 00:37:54;;;;;;;30.40;16.02;;;;;;;13.63;84.03;94234.61;1812069;78;21153;-56
2022/06/08 00:40:31;;;;;;;29.42;19.62;;;;;;;13.61;84.00;94221.90;1783361;79;21531;-55
2022/06/08 00:42:59;;;;;;;19.52;12.78;;;;;;;13.65;84.05;94227.98;1812054;79;21051;-55
2022/06/08 00:45:28;;;;;;;16.45;10.23;;;;;;;13.65;83.36;94225.97;1782579;79;20984;-56
2022/06/08 00:48:01;;;;;;;14.85;10.55;;;;;;;13.63;82.88;94222.17;1810395;78;21895;-55
2022/06/08 00:50:38;;;;;;;16.32;11.43;;;;;;;13.59;82.96;94227.89;1810377;79;20873;-55
2022/06/08 00:53:06;;;;;;;12.68;10.38;;;;;;;13.56;83.09;94233.60;1785867;79;20933;-55
2022/06/08 00:55:36;;;;;;;15.98;9.75;;;;;;;13.56;83.47;94226.70;1785271;79;21469;-54
2022/06/08 00:58:20;;;;;;;14.93;9.05;;;;;;;13.52;83.29;94234.42;1785145;79;21000;-56
2022/06/08 01:00:48;;;;;;;13.15;9.25;;;;;;;13.47;82.90;94233.09;1785428;79;21873;-55
2022/06/08 01:03:18;;;;;;;14.43;8.98;;;;;;;13.39;82.68;94238.87;1809993;79;20921;-56
2022/06/08 01:05:58;;;;;;;16.87;9.60;;;;;;;13.35;83.05;94236.92;1809751;79;20952;-55
2022/06/08 01:08:44;;;;;;;13.08;8.73;;;;;;;13.35;83.19;94232.00;1807423;79;20943;-55
2022/06/08 01:11:24;;;;;;;11.63;7.55;;;;;;;13.35;83.22;94236.14;1810255;79;21040;-55
2022/06/08 01:13:55;;;;;;;7.90;7.05;;;;;;;13.33;83.53;94237.25;1785352;79;20993;-56
2022/06/08 01:16:23;;;;;;;9.45;6.67;;;;;;;13.29;83.68;94227.02;1810058;79;20977;-56
2022/06/08 01:18:52;;;;;;;8.20;7.25;;;;;;;13.29;83.89;94227.02;1810207;79;21027;-55
2022/06/08 01:21:27;;;;;;;8.45;6.03;;;;;;;13.25;84.17;94222.30;1810013;78;20933;-55
2022/06/08 01:24:01;;;;;;;9.75;7.90;;;;;;;13.25;84.31;94226.45;1809458;78;20934;-55
2022/06/08 01:26:47;;;;;;;10.95;7.78;;;;;;;13.22;84.06;94224.61;1810007;79;21260;-55
2022/06/08 01:29:29;;;;;;;11.40;7.35;;;;;;;13.15;84.27;94218.88;1809975;79;21025;-55
2022/06/08 01:32:33;;;;;;;13.20;7.70;;;;;;;13.13;83.97;94216.44;1810383;79;20941;-55
2022/06/08 01:35:15;;;;;;;8.38;7.58;;;;;;;13.10;84.17;94216.76;1801378;79;20934;-54
2022/06/08 01:38:17;;;;;;;10.50;7.12;;;;;;;13.10;83.92;94214.63;1810294;79;21040;-55
2022/06/08 01:41:16;;;;;;;8.73;7.87;;;;;;;13.08;83.83;94210.20;1810123;79;22308;-55
2022/06/08 01:44:26;;;;;;;9.33;6.15;;;;;;;13.05;83.56;94214.67;1798951;79;21028;-55
2022/06/08 01:47:15;;;;;;;13.62;8.28;;;;;;;13.06;83.63;94214.06;1811296;79;21036;-56
2022/06/08 01:49:54;;;;;;;24.67;12.78;;;;;;;13.00;83.55;94217.33;1812400;77;21013;-55
2022/06/08 01:53:00;;;;;;;21.02;13.95;;;;;;;12.92;84.39;94212.80;1812304;79;21008;-55
2022/06/08 01:55:42;;;;;;;22.00;14.40;;;;;;;12.89;84.76;94218.49;1783054;79;21226;-55
2022/06/08 01:58:19;;;;;;;25.50;14.55;;;;;;;12.84;84.97;94218.53;1812607;79;20949;-54
2022/06/08 02:00:58;;;;;;;27.73;15.32;;;;;;;12.76;84.97;94215.23;1812297;79;20976;-55
2022/06/08 02:03:35;;;;;;;18.90;12.07;;;;;;;12.69;85.03;94207.33;1811773;79;20943;-55
2022/06/08 02:06:11;;;;;;;23.75;13.08;;;;;;;12.66;85.42;94204.11;1812428;78;21021;-55
2022/06/08 02:08:52;;;;;;;21.23;12.55;;;;;;;12.67;85.24;94209.77;1812262;78;22069;-55
2022/06/08 02:11:37;;;;;;;17.30;11.38;;;;;;;12.63;85.09;94209.98;1812389;79;20929;-56
2022/06/08 02:14:10;;;;;;;16.80;10.55;;;;;;;12.59;84.95;94204.48;1812140;79;20953;-55
2022/06/08 02:16:53;;;;;;;13.58;9.73;;;;;;;12.55;85.08;94203.91;1812302;79;21429;-56
2022/06/08 02:19:37;;;;;;;16.67;9.50;;;;;;;12.57;85.14;94206.96;1811890;77;20986;-55
2022/06/08 02:22:14;;;;;;;16.77;8.45;;;;;;;12.59;85.19;94207.25;1812278;78;21849;-55
2022/06/08 02:24:47;;;;;;;13.98;10.40;;;;;;;12.60;85.28;94204.62;1811972;79;21059;-55
2022/06/08 02:27:20;;;;;;;18.27;10.60;;;;;;;12.58;85.31;94197.45;1783707;79;26421;-55
2022/06/08 02:29:50;;;;;;;;;;;;;;;12.58;85.43;94207.11;1815068;78;21406;-55
2022/06/08 02:35:20;;;;;;;15.03;10.18;;;;;;;12.48;85.87;94209.78;1812275;79;21978;-55
2022/06/08 02:37:49;;;;;;;16.82;10.58;;;;;;;12.51;86.60;94213.00;1812719;79;20981;-55
2022/06/08 02:40:24;;;;;;;17.42;10.03;;;;;;;12.57;86.30;94205.58;1812430;79;20925;-55
2022/06/08 02:42:56;;;;;;;16.20;10.28;;;;;;;12.58;85.90;94206.50;1812230;77;21017;-55
2022/06/08 02:45:28;;;;;;;9.63;8.40;;;;;;;12.59;85.64;94205.27;1812138;77;20993;-56
2022/06/08 02:48:00;;;;;;;12.43;8.15;;;;;;;12.62;85.25;94200.78;1809332;78;21857;-55
2022/06/08 02:50:30;;;;;;;12.20;8.78;;;;;;;12.67;84.88;94207.02;1783950;79;20937;-56
2022/06/08 02:53:18;;;;;;;13.05;8.58;;;;;;;12.68;84.73;94207.93;1812392;79;20944;-55
2022/06/08 02:56:12;;;;;;;14.10;9.93;;;;;;;12.70;84.75;94211.61;1811990;77;21421;-55
2022/06/08 02:58:47;;;;;;;13.30;8.75;;;;;;;12.66;84.34;94211.01;1783184;79;21056;-56
2022/06/08 03:01:32;;;;;;;10.25;8.28;;;;;;;12.58;85.00;94208.48;1812182;79;21166;-55
2022/06/08 03:04:08;;;;;;;10.70;7.97;;;;;;;12.56;85.09;94217.85;1793490;79;20949;-56
2022/06/08 03:06:52;;;;;;;14.68;8.95;;;;;;;12.53;85.11;94213.89;1784727;79;20985;-56
2022/06/08 03:09:22;;;;;;;17.02;9.63;;;;;;;12.48;85.24;94213.91;1812093;79;21005;-55
2022/06/08 03:11:58;;;;;;;12.25;8.53;;;;;;;12.47;85.55;94220.67;1783392;79;20950;-54
2022/06/08 03:14:27;;;;;;;14.20;8.35;;;;;;;12.51;85.76;94223.26;1812476;79;21206;-56
2022/06/08 03:17:05;;;;;;;10.43;8.58;;;;;;;12.57;85.73;94227.66;1783157;79;21088;-55
2022/06/08 03:19:35;;;;;;;10.03;7.25;;;;;;;12.61;85.24;94225.47;1811697;79;20973;-55
2022/06/08 03:22:04;;;;;;;11.38;7.00;;;;;;;12.59;84.89;94226.56;1783584;79;21508;-56
2022/06/08 03:24:32;;;;;;;11.68;7.95;;;;;;;12.57;84.76;94231.80;1812500;79;21008;-55
2022/06/08 03:27:04;;;;;;;16.37;9.75;;;;;;;12.56;84.80;94231.02;1782617;79;21140;-56
2022/06/08 03:29:33;;;;;;;16.60;10.20;;;;;;;12.59;84.99;94232.08;1812431;78;20973;-56
2022/06/08 03:32:01;;;;;;;17.85;10.25;;;;;;;12.64;85.42;94233.58;1782598;79;20946;-55
2022/06/08 03:34:31;;;;;;;29.12;10.35;;;;;;;12.70;85.31;94225.41;1812442;79;20996;-55
2022/06/08 03:36:59;;;;;;;22.13;10.68;;;;;;;12.70;85.12;94228.17;1812107;79;20937;-55
2022/06/08 03:39:28;;;;;;;15.50;10.38;;;;;;;12.67;85.19;94234.61;1812471;78;21215;-55
2022/06/08 03:41:58;;;;;;;15.60;10.32;;;;;;;12.66;85.34;94238.61;1812031;79;21016;-55
2022/06/08 03:44:26;;;;;;;12.98;8.70;;;;;;;12.68;85.45;94236.16;1783168;79;21465;-55
2022/06/08 03:47:02;;;;;;;18.52;9.28;;;;;;;12.73;85.59;94236.88;1813368;78;21456;-56
2022/06/08 03:49:32;;;;;;;20.75;10.90;;;;;;;12.83;85.59;94235.55;1816124;78;20946;-55
2022/06/08 03:52:00;;;;;;;13.48;9.60;;;;;;;12.92;85.56;94237.64;1815730;79;21119;-56
2022/06/08 03:54:31;;;;;;;20.75;9.40;;;;;;;13.05;85.60;94238.77;1816053;79;21386;-56
2022/06/08 03:57:03;;;;;;;18.02;8.40;;;;;;;13.17;85.30;94235.73;1816065;78;21452;-56
2022/06/08 03:59:32;;;;;;;12.13;9.10;;;;;;;13.28;84.91;94233.78;1816122;79;20941;-56
2022/06/08 04:02:01;;;;;;;13.25;8.00;;;;;;;13.41;84.71;94235.64;1815901;79;20942;-55
2022/06/08 04:04:29;;;;;;;19.32;8.28;;;;;;;13.55;84.32;94225.17;1815926;79;21889;-55
2022/06/08 04:06:58;;;;;;;14.93;8.88;;;;;;;13.68;83.78;94231.17;1815817;79;21370;-55
2022/06/08 04:09:27;;;;;;;16.45;10.53;;;;;;;13.78;83.58;94231.95;1815827;79;20977;-56
2022/06/08 04:11:56;;;;;;;25.88;10.50;;;;;;;13.85;83.13;94232.94;1791164;79;21003;-55
2022/06/08 04:14:24;;;;;;;20.20;11.05;;;;;;;13.90;82.91;94234.27;1815779;79;21032;-55
2022/06/08 04:16:54;;;;;;;19.07;10.50;;;;;;;13.95;82.45;94237.73;1815804;79;21139;-56
2022/06/08 04:19:24;;;;;;;12.58;10.28;;;;;;;14.01;82.31;94234.44;1790892;78;21035;-57
2022/06/08 04:21:52;;;;;;;13.72;9.28;;;;;;;14.10;82.17;94235.69;1815817;77;21017;-57
2022/06/08 04:24:21;;;;;;;22.73;10.93;;;;;;;14.20;81.85;94230.95;1815913;79;20973;-55
2022/06/08 04:26:51;;;;;;;16.05;9.90;;;;;;;14.28;81.69;94229.93;1815331;78;20969;-55
2022/06/08 04:29:21;;;;;;;12.13;9.58;;;;;;;14.37;81.40;94229.81;1815392;79;21053;-56
2022/06/08 04:31:49;;;;;;;11.12;8.18;;;;;;;14.47;81.07;94229.94;1815676;79;20997;-55
2022/06/08 04:34:22;;;;;;;15.65;8.95;;;;;;;14.58;80.89;94227.31;1816075;78;20943;-55
2022/06/08 04:36:52;;;;;;;18.70;9.23;;;;;;;14.76;80.70;94224.27;1816206;79;21406;-55
2022/06/08 04:39:23;;;;;;;10.85;8.13;;;;;;;14.91;79.80;94232.47;1815871;79;21044;-55
2022/06/08 04:41:54;;;;;;;8.73;7.28;;;;;;;15.00;79.09;94230.95;1815649;79;21726;-56
2022/06/08 04:44:23;;;;;;;9.60;8.33;;;;;;;15.06;78.63;94217.91;1790752;79;21064;-54
2022/06/08 04:46:51;;;;;;;12.45;9.13;;;;;;;15.17;78.57;94215.27;1813283;78;21005;-54
2022/06/08 04:49:22;;;;;;;9.45;7.62;;;;;;;15.27;78.42;94209.06;1791330;78;21023;-55
2022/06/08 04:51:53;;;;;;;12.55;8.53;;;;;;;15.40;78.00;94208.70;1791542;80;21027;-56
2022/06/08 04:54:23;;;;;;;13.03;9.48;;;;;;;15.48;77.94;94206.98;1791138;78;21109;-55
2022/06/08 04:56:52;;;;;;;11.25;8.15;;;;;;;15.61;77.76;94203.97;1791057;80;21023;-56
2022/06/08 04:59:21;;;;;;;10.40;8.83;;;;;;;15.73;77.38;94201.40;1791161;80;20948;-55
2022/06/08 05:01:52;;;;;;;11.38;8.10;;;;;;;15.89;76.88;94202.80;1790684;80;20984;-55
2022/06/08 05:04:19;;;;;;;8.43;7.20;;;;;;;16.01;76.09;94209.30;1764704;80;21479;-55
2022/06/08 05:06:49;;;;;;;10.32;7.42;;;;;;;16.12;75.44;94203.80;1791163;80;21317;-56
2022/06/08 05:09:17;;;;;;;11.83;8.25;;;;;;;16.23;74.27;94200.33;1791544;78;20996;-55
2022/06/08 05:11:48;;;;;;;12.50;8.48;;;;;;;16.28;73.93;94197.59;1791273;78;20963;-59
2022/06/08 05:14:19;;;;;;;15.65;6.92;;;;;;;16.37;73.72;94199.56;1791664;80;20948;-60
2022/06/08 05:16:48;;;;;;;19.35;9.15;;;;;;;16.47;73.73;94200.11;1765314;80;20987;-59
2022/06/08 05:19:16;;;;;;;10.68;9.50;;;;;;;16.61;73.44;94201.34;1791288;78;21203;-68
2022/06/08 05:21:45;;;;;;;14.98;7.72;;;;;;;16.75;73.26;94195.45;1769926;79;21011;-60
2022/06/08 05:24:15;;;;;;;11.00;6.55;;;;;;;16.90;72.74;94198.78;1793962;78;21005;-58
2022/06/08 05:26:45;;;;;;;11.53;7.05;;;;;;;17.05;72.23;94195.14;1765416;80;20977;-60
2022/06/08 05:29:14;;;;;;;18.48;7.30;;;;;;;17.21;71.53;94193.03;1758349;80;21024;-59
2022/06/08 05:31:42;;;;;;;13.43;7.55;;;;;;;17.35;70.90;94191.45;1755884;80;21831;-59
2022/06/08 05:34:10;;;;;;;10.20;6.30;;;;;;;17.46;70.19;94197.66;1782982;79;20946;-59
2022/06/08 05:36:39;;;;;;;8.30;6.05;;;;;;;17.53;69.72;94190.20;1759392;80;21059;-58
2022/06/08 05:39:08;;;;;;;23.42;10.82;;;;;;;17.59;69.00;94190.95;1804211;78;20946;-59
2022/06/08 05:41:38;;;;;;;11.22;6.72;;;;;;;17.69;68.90;94192.23;1804270;78;20977;-60
2022/06/08 05:44:07;;;;;;;10.60;6.92;;;;;;;17.80;68.76;94192.23;1804161;78;21800;-60
2022/06/08 05:46:35;;;;;;;12.93;7.45;;;;;;;17.92;68.28;94193.72;1804169;78;21091;-60
2022/06/08 05:49:06;;;;;;;13.75;6.58;;;;;;;18.07;68.30;94187.27;1771066;78;21021;-59
2022/06/08 05:51:36;;;;;;;8.25;6.80;;;;;;;18.23;67.94;94192.16;1811216;78;20982;-60
2022/06/08 05:54:06;;;;;;;6.75;5.97;;;;;;;18.35;67.56;94184.56;1804229;78;21055;-60
2022/06/08 05:56:35;;;;;;;10.13;8.23;;;;;;;18.48;67.50;94193.89;1815576;78;21086;-61
2022/06/08 05:59:04;;;;;;;9.93;7.12;;;;;;;18.63;67.27;94184.60;1813940;78;21048;-62
2022/06/08 06:01:33;;;;;;;12.20;6.12;;;;;;;18.75;66.75;94190.27;1784706;78;21067;-67
2022/06/08 06:04:03;;;;;;;11.95;6.28;;;;;;;18.87;66.08;94194.50;1747423;78;20956;-59
2022/06/08 06:06:31;;;;;;;8.28;6.67;;;;;;;18.97;66.41;94187.38;1797777;78;21624;-61
2022/06/08 06:09:01;;;;;;;8.93;7.03;;;;;;;19.11;66.54;94188.30;1788819;78;21160;-59
2022/06/08 06:11:32;;;;;;;7.50;6.35;;;;;;;19.22;66.01;94190.42;1798427;78;21494;-62
2022/06/08 06:14:01;;;;;;;6.12;5.60;;;;;;;19.32;65.14;94186.06;1802410;78;21401;-61
2022/06/08 06:16:31;;;;;;;12.98;5.67;;;;;;;19.42;64.63;94177.52;1754813;80;21011;-60
2022/06/08 06:19:02;;;;;;;6.47;5.15;;;;;;;19.52;63.93;94180.09;1783452;78;21504;-64
2022/06/08 06:21:45;;;;;;;14.73;7.90;;;;;;;19.61;63.78;94179.01;1788329;78;21072;-61
2022/06/08 06:24:17;;;;;;;8.70;5.50;;;;;;;19.74;63.58;94178.52;1776793;78;21063;-60
2022/06/08 06:27:00;;;;;;;8.98;5.42;;;;;;;19.88;63.25;94182.98;1804219;78;20961;-62
2022/06/08 06:29:30;;;;;;;6.05;5.45;;;;;;;20.03;62.49;94180.59;1794088;78;21104;-63
2022/06/08 06:32:09;;;;;;;5.17;4.67;;;;;;;20.15;62.25;94180.59;1791838;78;21379;-64
2022/06/08 06:34:39;;;;;;;11.18;5.20;;;;;;;20.26;61.63;94179.86;1794380;78;21115;-59
2022/06/08 06:37:07;;;;;;;5.70;5.17;;;;;;;20.38;60.74;94174.91;1791478;78;21556;-62
2022/06/08 06:39:35;;;;;;;5.12;4.70;;;;;;;20.49;60.89;94171.98;1784261;78;21080;-59
2022/06/08 06:42:16;;;;;;;5.22;4.72;;;;;;;20.61;60.24;94165.77;1777216;78;21174;-56
2022/06/08 06:44:44;;;;;;;11.80;5.72;;;;;;;20.73;60.60;94159.40;1782466;78;21055;-61
2022/06/08 06:47:14;;;;;;;12.58;6.37;;;;;;;20.88;60.48;94168.11;1768491;77;21226;-57
2022/06/08 06:49:44;;;;;;;11.12;5.95;;;;;;;21.02;60.14;94156.50;1761915;80;21032;-54
2022/06/08 06:52:14;;;;;;;5.75;5.15;;;;;;;21.15;59.33;94154.42;1785124;79;21504;-61
2022/06/08 06:54:42;;;;;;;6.17;5.08;;;;;;;21.28;59.06;94152.44;1764213;79;21039;-60
2022/06/08 06:57:11;;;;;;;7.45;5.40;;;;;;;21.41;59.31;94150.34;1756036;79;21027;-63
2022/06/08 06:59:40;;;;;;;5.90;4.53;;;;;;;21.52;59.33;94150.95;1730158;81;21120;-61
2022/06/08 07:02:14;;;;;;;6.28;4.90;;;;;;;21.65;59.24;94151.67;1772728;79;20996;-58
2022/06/08 07:04:41;;;;;;;6.47;4.80;;;;;;;21.74;59.06;94151.27;1736392;79;21040;-61
2022/06/08 07:07:10;;;;;;;7.40;5.05;;;;;;;21.87;58.22;94145.71;1756530;79;21087;-59
2022/06/08 07:09:40;;;;;;;9.25;5.47;;;;;;;21.97;57.39;94146.80;1756137;80;21488;-62
2022/06/08 07:12:10;;;;;;;7.03;5.42;;;;;;;22.03;57.44;94146.19;1752433;79;21234;-62
2022/06/08 07:14:41;;;;;;;5.72;5.10;;;;;;;22.15;57.47;94138.34;1760887;79;21053;-60
2022/06/08 07:17:10;;;;;;;6.35;4.50;;;;;;;22.28;56.87;94133.50;1762496;80;21084;-63
2022/06/08 07:19:43;;;;;;;5.42;4.90;;;;;;;22.41;55.31;94129.34;1729117;80;21053;-61
2022/06/08 07:22:11;;;;;;;6.47;5.65;;;;;;;22.51;55.68;94139.47;1761503;81;20998;-62
2022/06/08 07:24:40;;;;;;;6.92;4.53;;;;;;;22.64;55.28;94137.42;1731241;81;22136;-57
2022/06/08 07:27:08;;;;;;;5.55;4.53;;;;;;;22.75;55.24;94124.59;1767757;79;20998;-62
2022/06/08 07:29:38;;;;;;;9.80;5.22;;;;;;;22.90;54.66;94128.23;1719069;80;21500;-59
2022/06/08 07:32:07;;;;;;;5.12;4.62;;;;;;;23.05;54.73;94124.95;1757902;79;20993;-63
2022/06/08 07:34:36;;;;;;;6.08;4.60;;;;;;;23.23;54.30;94126.14;1741241;79;21043;-63
2022/06/08 07:37:04;;;;;;;6.55;4.62;;;;;;;23.37;54.02;94118.53;1770183;79;21010;-63
2022/06/08 07:39:32;;;;;;;6.33;5.05;;;;;;;23.50;53.25;94121.30;1788626;79;21020;-62
2022/06/08 07:42:02;;;;;;;7.83;4.60;;;;;;;23.62;52.78;94121.15;1757820;79;21119;-65
2022/06/08 07:44:31;;;;;;;5.78;5.25;;;;;;;23.76;51.80;94118.36;1748217;79;21423;-63
2022/06/08 07:46:59;;;;;;;8.15;5.30;;;;;;;23.87;51.90;94120.94;1750014;81;21073;-62
2022/06/08 07:49:39;;;;;;;7.72;4.50;;;;;;;23.98;51.76;94115.02;1764580;79;21869;-63
2022/06/08 07:52:15;;;;;;;4.40;4.00;;;;;;;24.10;51.37;94113.45;1766982;81;20977;-60
2022/06/08 07:54:43;;;;;;;5.53;4.55;;;;;;;24.25;51.58;94112.16;1749939;78;21022;-66
2022/06/08 07:57:22;;;;;;;5.90;4.10;;;;;;;24.40;51.16;94113.69;1748310;80;21446;-64
2022/06/08 07:59:51;;;;;;;10.05;6.22;;;;;;;24.49;50.11;94099.11;1754474;80;21542;-62
2022/06/08 08:02:19;;;;;;;5.55;3.90;;;;;;;24.60;49.68;94100.98;1705053;81;21320;-62
2022/06/08 08:04:47;;;;;;;5.05;3.90;;;;;;;24.66;48.12;94102.23;1760410;78;20985;-63
2022/06/08 08:07:16;;;;;;;8.68;3.85;;;;;;;24.74;48.67;94104.45;1752384;78;21030;-63
2022/06/08 08:09:45;;;;;;;6.87;4.00;;;;;;;24.83;48.62;94101.11;1764962;78;21036;-62
2022/06/08 08:12:14;;;;;;;5.25;3.95;;;;;;;24.95;49.35;94100.90;1748035;81;21042;-62
2022/06/08 08:14:41;;;;;;;5.35;3.77;;;;;;;25.04;47.47;94105.99;1750399;78;22448;-63
2022/06/08 08:17:10;;;;;;;4.60;4.20;;;;;;;25.13;46.62;94102.67;1747850;78;21012;-67
2022/06/08 08:19:39;;;;;;;6.15;3.85;;;;;;;25.22;46.66;94094.47;1758121;78;21063;-65
2022/06/08 08:22:10;;;;;;;7.80;4.10;;;;;;;25.31;47.60;94093.92;1745492;81;20985;-62
2022/06/08 08:24:39;;;;;;;4.10;3.70;;;;;;;25.45;46.74;94095.28;1723068;78;21583;-61
2022/06/08 08:27:11;;;;;;;4.00;3.45;;;;;;;25.60;47.29;94083.29;1754823;78;22771;-63
2022/06/08 08:29:39;;;;;;;3.53;3.23;;;;;;;25.72;47.12;94087.27;1755496;78;21473;-63
2022/06/08 08:32:10;;;;;;;5.20;3.37;;;;;;;25.82;45.98;94079.09;1747712;78;21543;-64
2022/06/08 08:34:40;;;;;;;6.45;3.67;;;;;;;25.87;46.25;94079.59;1755801;78;21045;-60
2022/06/08 08:37:10;;;;;;;4.08;3.27;;;;;;;25.93;44.50;94079.41;1733490;80;21084;-61
2022/06/08 08:39:38;;;;;;;3.92;3.47;;;;;;;25.98;43.63;94080.64;1762280;78;21564;-63
2022/06/08 08:42:21;;;;;;;9.45;3.92;;;;;;;26.01;43.87;94085.16;1759683;78;21380;-65
2022/06/08 08:45:12;;;;;;;6.55;3.58;;;;;;;26.05;43.74;94091.16;1765646;78;21180;-65
2022/06/08 08:48:12;;;;;;;4.10;3.70;;;;;;;26.17;42.95;94088.84;1749805;79;21460;-59
2022/06/08 08:50:50;;;;;;;7.35;3.47;;;;;;;26.24;43.71;94068.97;1767397;79;21038;-76
2022/06/08 08:53:25;;;;;;;4.70;3.70;;;;;;;26.34;42.43;94077.70;1765253;79;21243;-68
2022/06/08 08:56:18;;;;;;;5.85;3.80;;;;;;;26.42;43.95;94077.05;1772547;79;21501;-63
2022/06/08 08:58:47;;;;;;;4.08;3.35;;;;;;;26.55;42.60;94072.64;1778252;79;21060;-65
2022/06/08 09:01:30;;;;;;;5.00;3.80;;;;;;;26.66;43.28;94076.45;1729114;79;21110;-67
2022/06/08 09:04:08;;;;;;;5.08;3.27;;;;;;;26.76;42.10;94072.39;1743926;80;21078;-66
2022/06/08 09:06:36;;;;;;;3.98;3.50;;;;;;;26.87;43.06;94072.73;1808841;77;21146;-67
2022/06/08 09:09:12;;;;;;;9.83;3.83;;;;;;;26.99;42.91;94066.77;1802826;77;20969;-64
2022/06/08 09:11:42;;;;;;;4.30;3.40;;;;;;;27.03;41.97;94064.97;1816221;77;21038;-64
2022/06/08 09:14:19;;;;;;;3.72;3.40;;;;;;;26.97;41.88;94064.41;1791141;77;21076;-65
2022/06/08 09:16:52;;;;;;;5.53;3.33;;;;;;;26.94;42.40;94055.03;1804406;78;21001;-66
2022/06/08 09:19:28;;;;;;;4.60;3.40;;;;;;;27.04;41.36;94051.67;1813464;77;21041;-64
2022/06/08 09:22:13;;;;;;;6.17;3.08;;;;;;;27.11;41.09;94048.11;1781080;78;21011;-61
2022/06/08 09:25:01;;;;;;;8.08;3.75;;;;;;;27.22;40.73;94044.84;1807477;78;20990;-62
2022/06/08 09:27:39;;;;;;;4.47;3.52;;;;;;;27.38;40.62;94042.03;1825464;77;21116;-58
2022/06/08 09:30:24;;;;;;;3.52;3.22;;;;;;;27.55;41.17;94042.12;1776736;79;21038;-58
2022/06/08 09:32:54;;;;;;;;;;;;;;;27.70;40.83;94044.84;1809405;78;21184;-62
2022/06/08 09:35:34;;;;;;;3.30;3.00;;;;;;;27.80;39.12;94045.73;1801980;78;20144;-58
2022/06/08 09:38:06;;;;;;;3.35;3.05;;;;;;;27.82;37.79;94041.69;1795001;78;21135;-59
2022/06/08 09:40:51;;;;;;;8.13;3.85;;;;;;;27.86;38.75;94042.03;1809103;78;21025;-59
2022/06/08 09:43:49;;;;;;;6.12;2.92;;;;;;;27.91;38.15;94036.80;1785590;78;21021;-59
2022/06/08 09:52:41;;;;;;;;;;;;;;;28.11;36.79;94028.62;1742870;79;21477;-56
2022/06/08 09:55:48;;;;;;;4.15;2.85;;;;;;;28.25;38.46;94028.41;1781516;79;20304;-58
2022/06/08 09:58:30;;;;;;;3.87;3.30;;;;;;;28.32;38.15;94029.02;1770535;79;21009;-57
2022/06/08 10:01:15;;;;;;;3.98;3.02;;;;;;;28.24;37.55;94023.40;1779917;79;21226;-58
2022/06/08 10:04:16;;;;;;;3.77;3.25;;;;;;;28.19;38.12;94022.25;1771501;79;21066;-58
2022/06/08 10:07:20;;;;;;;8.38;3.37;;;;;;;28.20;38.33;94015.98;1744826;80;21102;-58
2022/06/08 10:10:37;;;;;;;3.95;3.08;;;;;;;28.15;38.35;94017.64;1750614;80;21041;-58
2022/06/08 10:13:21;;;;;;;8.73;5.45;;;;;;;27.90;38.13;94019.75;1826821;77;21526;-58
2022/06/08 10:16:03;;;;;;;9.95;8.43;;;;;;;27.61;39.04;94017.19;1817715;77;21182;-56
2022/06/08 10:18:56;;;;;;;5.95;3.67;;;;;;;27.55;40.49;94013.85;1802780;78;21086;-58
2022/06/08 10:21:28;;;;;;;7.42;3.35;;;;;;;27.69;39.28;94007.25;1800864;78;21480;-60
2022/06/08 10:24:21;;;;;;;3.75;2.83;;;;;;;27.86;38.16;94005.27;1807993;77;21095;-57
2022/06/08 10:27:00;;;;;;;5.83;3.30;;;;;;;28.08;39.68;94004.32;1812462;77;21509;-57
2022/06/08 10:29:45;;;;;;;8.63;3.22;;;;;;;28.38;38.46;94000.56;1783044;77;21183;-59
2022/06/08 10:32:24;;;;;;;10.18;3.50;;;;;;;28.66;38.27;93995.08;1814853;77;20996;-58
2022/06/08 10:34:54;;;;;;;3.95;3.10;;;;;;;28.87;38.00;93999.64;1806672;78;21083;-60
2022/06/08 10:37:35;;;;;;;3.55;2.58;;;;;;;28.77;36.87;93998.15;1813904;78;21076;-59
2022/06/08 10:40:16;;;;;;;3.33;3.02;;;;;;;28.50;36.42;93994.50;1794370;78;21031;-59
2022/06/08 10:42:46;;;;;;;4.37;3.52;;;;;;;28.53;37.97;93997.58;1806232;77;22236;-59
2022/06/08 10:45:35;;;;;;;8.88;3.70;;;;;;;28.64;39.54;93994.27;1793831;77;21068;-60
2022/06/08 10:48:18;;;;;;;7.53;3.90;;;;;;;28.70;36.87;93993.98;1810820;77;21643;-58
2022/06/08 10:50:49;;;;;;;3.85;3.12;;;;;;;28.87;37.22;93993.97;1810362;77;21028;-60
2022/06/08 10:56:29;;;;;;;3.37;3.08;;;;;;;28.38;38.12;93988.51;1804713;77;21250;-58
2022/06/08 10:59:10;;;;;;;5.62;3.55;;;;;;;27.98;38.92;93996.38;1793552;78;21051;-58
2022/06/08 11:02:23;;;;;;;4.20;3.72;;;;;;;27.64;40.00;93996.28;1780287;79;21111;-60
2022/06/08 11:05:02;;;;;;;4.70;4.30;;;;;;;27.48;40.78;93983.58;1805528;77;21013;-59
2022/06/08 11:07:34;;;;;;;4.15;3.75;;;;;;;27.63;41.29;93977.82;1805771;77;21059;-62
2022/06/08 11:10:04;;;;;;;5.65;3.77;;;;;;;28.33;42.19;93978.16;1774435;78;21486;-55
2022/06/08 11:12:40;;;;;;;3.70;3.37;;;;;;;29.02;40.43;93978.23;1779263;77;21053;-60
2022/06/08 11:15:19;;;;;;;4.53;3.55;;;;;;;29.46;39.80;93978.31;1818369;77;21532;-55
2022/06/08 11:17:52;;;;;;;3.50;3.20;;;;;;;29.77;39.03;93974.34;1802440;78;21021;-59
2022/06/08 11:20:28;;;;;;;8.53;3.80;;;;;;;30.27;37.56;93976.15;1814443;77;21096;-59
2022/06/08 11:23:14;;;;;;;4.87;3.60;;;;;;;30.67;36.72;93970.03;1796042;77;21773;-57
2022/06/08 11:25:54;;;;;;;5.40;3.27;;;;;;;31.03;36.10;93965.60;1814211;78;21024;-59
2022/06/08 11:28:40;;;;;;;5.30;2.98;;;;;;;30.95;35.92;93961.42;1795388;77;22175;-59
2022/06/08 11:31:29;;;;;;;6.25;3.27;;;;;;;30.90;36.43;93966.05;1796452;77;21364;-57
2022/06/08 11:34:28;;;;;;;5.50;3.70;;;;;;;30.80;35.69;93967.41;1813818;77;21029;-56
2022/06/08 11:37:18;;;;;;;9.28;4.50;;;;;;;30.26;35.70;93965.48;1803120;77;21623;-58
2022/06/08 11:40:19;;;;;;;4.00;3.40;;;;;;;29.67;36.25;93965.06;1806405;77;21017;-58
2022/06/08 11:42:51;;;;;;;5.85;3.10;;;;;;;29.80;36.22;93957.55;1818871;77;21025;-58
2022/06/08 11:45:25;;;;;;;;;;;;;;;30.40;35.41;93959.45;1784879;77;21083;-59
2022/06/08 11:48:04;;;;;;;5.95;3.62;;;;;;;31.12;35.67;93959.20;1821949;77;20466;-59
2022/06/08 11:50:41;;;;;;;7.37;3.22;;;;;;;31.81;34.23;93952.78;1815795;78;21098;-55
2022/06/08 11:53:27;;;;;;;4.08;2.85;;;;;;;32.46;34.22;93959.52;1785997;79;21038;-59
2022/06/08 11:56:22;;;;;;;5.45;3.33;;;;;;;32.48;32.10;93949.67;1797688;78;21160;-58
2022/06/08 11:58:52;;;;;;;5.15;2.92;;;;;;;32.27;31.94;93946.06;1815684;77;21431;-59
2022/06/08 12:01:42;;;;;;;4.22;2.52;;;;;;;31.73;32.31;93952.89;1792164;77;21009;-58
2022/06/08 12:04:17;;;;;;;8.03;3.33;;;;;;;31.07;32.93;93950.25;1817903;77;21142;-61
2022/06/08 12:06:45;;;;;;;6.08;3.25;;;;;;;30.99;33.28;93946.84;1815954;77;21552;-62
2022/06/08 12:09:26;;;;;;;4.15;2.90;;;;;;;31.49;33.44;93939.13;1789868;77;22004;-58
2022/06/08 12:12:13;;;;;;;7.10;3.15;;;;;;;32.00;32.06;93944.16;1731421;80;21115;-59
2022/06/08 12:14:42;;;;;;;5.40;3.25;;;;;;;31.94;31.86;93940.90;1765006;79;21051;-61
2022/06/08 12:17:20;;;;;;;7.85;3.95;;;;;;;31.95;32.79;93949.50;1737885;80;20994;-60